sensor_id;sensor_type;location;lat;lon;timestamp;P1;durP1;ratioP1;P2;durP2;ratioP2
64313;SDS011;50650;48.180;11.524;2023-12-20T00:00:13;3.90;;;1.30;;
64313;SDS011;50650;48.180;11.524;2023-12-20T00:02:42;2.65;;;1.30;;
64313;SDS011;50650;48.180;11.524;2023-12-20T00:05:12;3.42;;;1.40;;
64313;SDS011;50650;48.180;11.524;2023-12-20T00:07:41;3.60;;;1.67;;
64313;SDS011;50650;48.180;11.524;2023-12-20T00:10:13;3.92;;;1.50;;
64313;SDS011;50650;48.180;11.524;2023-12-20T00:12:41;4.47;;;1.63;;
64313;SDS011;50650;48.180;11.524;2023-12-20T00:15:08;2.17;;;1.40;;
64313;SDS011;50650;48.180;11.524;2023-12-20T00:17:36;17.55;;;2.13;;
64313;SDS011;50650;48.180;11.524;2023-12-20T00:20:03;3.45;;;1.48;;
64313;SDS011;50650;48.180;11.524;2023-12-20T00:22:31;2.60;;;1.25;;
64313;SDS011;50650;48.180;11.524;2023-12-20T00:24:57;4.70;;;1.40;;
64313;SDS011;50650;48.180;11.524;2023-12-20T00:27:24;3.08;;;1.35;;
64313;SDS011;50650;48.180;11.524;2023-12-20T00:29:52;2.33;;;1.08;;
64313;SDS011;50650;48.180;11.524;2023-12-20T00:32:18;1.42;;;0.90;;
64313;SDS011;50650;48.180;11.524;2023-12-20T00:34:44;2.15;;;1.30;;
64313;SDS011;50650;48.180;11.524;2023-12-20T00:37:11;2.08;;;1.20;;
64313;SDS011;50650;48.180;11.524;2023-12-20T00:39:37;2.50;;;1.08;;
64313;SDS011;50650;48.180;11.524;2023-12-20T00:42:04;2.70;;;1.35;;
64313;SDS011;50650;48.180;11.524;2023-12-20T00:44:31;3.10;;;1.38;;
64313;SDS011;50650;48.180;11.524;2023-12-20T00:46:58;3.78;;;1.25;;
64313;SDS011;50650;48.180;11.524;2023-12-20T00:49:26;2.50;;;1.02;;
64313;SDS011;50650;48.180;11.524;2023-12-20T00:51:52;1.83;;;1.17;;
64313;SDS011;50650;48.180;11.524;2023-12-20T00:54:19;2.30;;;1.20;;
64313;SDS011;50650;48.180;11.524;2023-12-20T00:56:45;2.03;;;1.00;;
64313;SDS011;50650;48.180;11.524;2023-12-20T00:59:11;1.85;;;0.98;;
64313;SDS011;50650;48.180;11.524;2023-12-20T01:01:38;1.40;;;1.00;;
64313;SDS011;50650;48.180;11.524;2023-12-20T01:04:05;2.33;;;1.20;;
64313;SDS011;50650;48.180;11.524;2023-12-20T01:06:32;3.70;;;1.13;;
64313;SDS011;50650;48.180;11.524;2023-12-20T01:08:58;2.40;;;1.15;;
64313;SDS011;50650;48.180;11.524;2023-12-20T01:11:25;1.23;;;0.77;;
64313;SDS011;50650;48.180;11.524;2023-12-20T01:13:51;2.10;;;1.00;;
64313;SDS011;50650;48.180;11.524;2023-12-20T01:16:17;1.85;;;0.90;;
64313;SDS011;50650;48.180;11.524;2023-12-20T01:18:47;3.03;;;1.10;;
64313;SDS011;50650;48.180;11.524;2023-12-20T01:21:15;1.00;;;0.70;;
64313;SDS011;50650;48.180;11.524;2023-12-20T01:23:42;1.38;;;0.70;;
64313;SDS011;50650;48.180;11.524;2023-12-20T01:26:08;2.03;;;1.00;;
64313;SDS011;50650;48.180;11.524;2023-12-20T01:28:35;1.75;;;0.90;;
64313;SDS011;50650;48.180;11.524;2023-12-20T01:31:01;1.88;;;0.82;;
64313;SDS011;50650;48.180;11.524;2023-12-20T01:33:28;1.75;;;0.80;;
64313;SDS011;50650;48.180;11.524;2023-12-20T01:35:54;3.45;;;0.90;;
64313;SDS011;50650;48.180;11.524;2023-12-20T01:38:22;1.05;;;0.73;;
64313;SDS011;50650;48.180;11.524;2023-12-20T01:40:48;2.47;;;1.10;;
64313;SDS011;50650;48.180;11.524;2023-12-20T01:43:15;5.80;;;0.98;;
64313;SDS011;50650;48.180;11.524;2023-12-20T01:45:41;1.48;;;0.80;;
64313;SDS011;50650;48.180;11.524;2023-12-20T01:48:08;2.15;;;0.98;;
64313;SDS011;50650;48.180;11.524;2023-12-20T01:50:37;1.40;;;0.80;;
64313;SDS011;50650;48.180;11.524;2023-12-20T01:53:05;0.90;;;0.68;;
64313;SDS011;50650;48.180;11.524;2023-12-20T01:55:36;3.78;;;0.90;;
64313;SDS011;50650;48.180;11.524;2023-12-20T01:58:05;1.33;;;0.80;;
64313;SDS011;50650;48.180;11.524;2023-12-20T02:00:32;3.17;;;0.60;;
64313;SDS011;50650;48.180;11.524;2023-12-20T02:03:05;2.63;;;0.88;;
64313;SDS011;50650;48.180;11.524;2023-12-20T02:05:32;1.48;;;0.82;;
64313;SDS011;50650;48.180;11.524;2023-12-20T02:07:58;1.60;;;0.63;;
64313;SDS011;50650;48.180;11.524;2023-12-20T02:10:24;1.85;;;0.77;;
64313;SDS011;50650;48.180;11.524;2023-12-20T02:12:52;1.42;;;0.75;;
64313;SDS011;50650;48.180;11.524;2023-12-20T02:15:19;1.23;;;0.60;;
64313;SDS011;50650;48.180;11.524;2023-12-20T02:17:46;1.70;;;0.77;;
64313;SDS011;50650;48.180;11.524;2023-12-20T02:20:13;0.70;;;0.60;;
64313;SDS011;50650;48.180;11.524;2023-12-20T02:22:43;1.20;;;0.70;;
64313;SDS011;50650;48.180;11.524;2023-12-20T02:25:10;1.10;;;0.60;;
64313;SDS011;50650;48.180;11.524;2023-12-20T02:27:37;3.00;;;0.70;;
64313;SDS011;50650;48.180;11.524;2023-12-20T02:30:03;1.15;;;0.70;;
64313;SDS011;50650;48.180;11.524;2023-12-20T02:32:31;1.33;;;0.43;;
64313;SDS011;50650;48.180;11.524;2023-12-20T02:34:57;3.83;;;0.70;;
64313;SDS011;50650;48.180;11.524;2023-12-20T02:37:23;1.33;;;0.60;;
64313;SDS011;50650;48.180;11.524;2023-12-20T02:39:51;0.85;;;0.40;;
64313;SDS011;50650;48.180;11.524;2023-12-20T02:42:18;1.63;;;0.60;;
64313;SDS011;50650;48.180;11.524;2023-12-20T02:44:44;3.13;;;0.40;;
64313;SDS011;50650;48.180;11.524;2023-12-20T02:47:10;2.13;;;0.70;;
64313;SDS011;50650;48.180;11.524;2023-12-20T02:49:37;1.10;;;0.40;;
64313;SDS011;50650;48.180;11.524;2023-12-20T02:52:03;1.35;;;0.32;;
64313;SDS011;50650;48.180;11.524;2023-12-20T02:54:30;1.10;;;0.60;;
64313;SDS011;50650;48.180;11.524;2023-12-20T02:56:58;0.52;;;0.40;;
64313;SDS011;50650;48.180;11.524;2023-12-20T02:59:24;0.80;;;0.47;;
64313;SDS011;50650;48.180;11.524;2023-12-20T03:01:51;0.60;;;0.30;;
64313;SDS011;50650;48.180;11.524;2023-12-20T03:04:17;0.90;;;0.40;;
64313;SDS011;50650;48.180;11.524;2023-12-20T03:06:44;1.83;;;0.20;;
64313;SDS011;50650;48.180;11.524;2023-12-20T03:09:10;0.90;;;0.40;;
64313;SDS011;50650;48.180;11.524;2023-12-20T03:11:44;0.32;;;0.20;;
64313;SDS011;50650;48.180;11.524;2023-12-20T03:14:12;0.73;;;0.43;;
64313;SDS011;50650;48.180;11.524;2023-12-20T03:16:38;0.38;;;0.20;;
64313;SDS011;50650;48.180;11.524;2023-12-20T03:19:04;0.50;;;0.30;;
64313;SDS011;50650;48.180;11.524;2023-12-20T03:21:31;0.32;;;0.30;;
64313;SDS011;50650;48.180;11.524;2023-12-20T03:23:57;1.10;;;0.40;;
64313;SDS011;50650;48.180;11.524;2023-12-20T03:26:23;1.40;;;0.50;;
64313;SDS011;50650;48.180;11.524;2023-12-20T03:28:50;0.88;;;0.40;;
64313;SDS011;50650;48.180;11.524;2023-12-20T03:31:18;0.75;;;0.40;;
64313;SDS011;50650;48.180;11.524;2023-12-20T03:33:46;1.33;;;0.20;;
64313;SDS011;50650;48.180;11.524;2023-12-20T03:36:12;0.52;;;0.32;;
64313;SDS011;50650;48.180;11.524;2023-12-20T03:38:38;0.98;;;0.30;;
64313;SDS011;50650;48.180;11.524;2023-12-20T03:41:05;0.60;;;0.35;;
64313;SDS011;50650;48.180;11.524;2023-12-20T03:43:31;0.70;;;0.40;;
64313;SDS011;50650;48.180;11.524;2023-12-20T03:45:57;0.75;;;0.43;;
64313;SDS011;50650;48.180;11.524;2023-12-20T03:48:26;0.70;;;0.40;;
64313;SDS011;50650;48.180;11.524;2023-12-20T03:50:52;0.60;;;0.40;;
64313;SDS011;50650;48.180;11.524;2023-12-20T03:53:19;0.95;;;0.40;;
64313;SDS011;50650;48.180;11.524;2023-12-20T03:55:45;13.00;;;0.50;;
64313;SDS011;50650;48.180;11.524;2023-12-20T03:58:11;0.70;;;0.40;;
64313;SDS011;50650;48.180;11.524;2023-12-20T04:00:41;0.88;;;0.50;;
64313;SDS011;50650;48.180;11.524;2023-12-20T04:03:07;0.90;;;0.25;;
64313;SDS011;50650;48.180;11.524;2023-12-20T04:05:35;0.43;;;0.30;;
64313;SDS011;50650;48.180;11.524;2023-12-20T04:08:04;1.77;;;0.40;;
64313;SDS011;50650;48.180;11.524;2023-12-20T04:10:31;1.63;;;0.50;;
64313;SDS011;50650;48.180;11.524;2023-12-20T04:12:58;0.57;;;0.32;;
64313;SDS011;50650;48.180;11.524;2023-12-20T04:15:24;0.55;;;0.28;;
64313;SDS011;50650;48.180;11.524;2023-12-20T04:17:51;1.38;;;0.47;;
64313;SDS011;50650;48.180;11.524;2023-12-20T04:20:17;0.82;;;0.38;;
64313;SDS011;50650;48.180;11.524;2023-12-20T04:22:45;1.42;;;0.52;;
64313;SDS011;50650;48.180;11.524;2023-12-20T04:25:11;0.30;;;0.20;;
64313;SDS011;50650;48.180;11.524;2023-12-20T04:27:38;1.17;;;0.47;;
64313;SDS011;50650;48.180;11.524;2023-12-20T04:30:05;0.50;;;0.30;;
64313;SDS011;50650;48.180;11.524;2023-12-20T04:32:32;0.60;;;0.35;;
64313;SDS011;50650;48.180;11.524;2023-12-20T04:34:59;0.77;;;0.30;;
64313;SDS011;50650;48.180;11.524;2023-12-20T04:37:24;0.50;;;0.40;;
64313;SDS011;50650;48.180;11.524;2023-12-20T04:39:52;0.88;;;0.52;;
64313;SDS011;50650;48.180;11.524;2023-12-20T04:42:18;1.00;;;0.60;;
64313;SDS011;50650;48.180;11.524;2023-12-20T04:44:45;1.00;;;0.47;;
64313;SDS011;50650;48.180;11.524;2023-12-20T04:47:11;0.77;;;0.50;;
64313;SDS011;50650;48.180;11.524;2023-12-20T04:49:37;0.80;;;0.60;;
64313;SDS011;50650;48.180;11.524;2023-12-20T04:52:04;1.08;;;0.50;;
64313;SDS011;50650;48.180;11.524;2023-12-20T04:54:33;1.35;;;0.80;;
64313;SDS011;50650;48.180;11.524;2023-12-20T04:57:01;2.42;;;0.70;;
64313;SDS011;50650;48.180;11.524;2023-12-20T04:59:28;2.55;;;0.70;;
64313;SDS011;50650;48.180;11.524;2023-12-20T05:01:54;1.40;;;0.82;;
64313;SDS011;50650;48.180;11.524;2023-12-20T05:04:20;1.30;;;0.90;;
64313;SDS011;50650;48.180;11.524;2023-12-20T05:06:47;1.95;;;0.73;;
64313;SDS011;50650;48.180;11.524;2023-12-20T05:09:14;1.58;;;0.82;;
64313;SDS011;50650;48.180;11.524;2023-12-20T05:11:41;1.65;;;0.93;;
64313;SDS011;50650;48.180;11.524;2023-12-20T05:14:09;2.30;;;1.20;;
64313;SDS011;50650;48.180;11.524;2023-12-20T05:16:35;1.38;;;0.98;;
64313;SDS011;50650;48.180;11.524;2023-12-20T05:19:01;1.52;;;0.82;;
64313;SDS011;50650;48.180;11.524;2023-12-20T05:21:31;2.08;;;1.30;;
64313;SDS011;50650;48.180;11.524;2023-12-20T05:23:58;1.42;;;1.10;;
64313;SDS011;50650;48.180;11.524;2023-12-20T05:26:24;2.83;;;1.20;;
64313;SDS011;50650;48.180;11.524;2023-12-20T05:28:51;1.65;;;1.20;;
64313;SDS011;50650;48.180;11.524;2023-12-20T05:31:18;1.88;;;1.20;;
64313;SDS011;50650;48.180;11.524;2023-12-20T05:33:45;2.10;;;1.33;;
64313;SDS011;50650;48.180;11.524;2023-12-20T05:36:14;2.70;;;1.33;;
64313;SDS011;50650;48.180;11.524;2023-12-20T05:38:40;2.08;;;1.15;;
64313;SDS011;50650;48.180;11.524;2023-12-20T05:41:07;1.75;;;1.25;;
64313;SDS011;50650;48.180;11.524;2023-12-20T05:43:33;2.00;;;1.20;;
64313;SDS011;50650;48.180;11.524;2023-12-20T05:46:00;2.90;;;1.33;;
64313;SDS011;50650;48.180;11.524;2023-12-20T05:48:27;1.95;;;1.20;;
64313;SDS011;50650;48.180;11.524;2023-12-20T05:50:54;2.80;;;1.20;;
64313;SDS011;50650;48.180;11.524;2023-12-20T05:53:20;2.38;;;1.00;;
64313;SDS011;50650;48.180;11.524;2023-12-20T05:55:47;1.95;;;1.17;;
64313;SDS011;50650;48.180;11.524;2023-12-20T05:58:13;3.03;;;1.20;;
64313;SDS011;50650;48.180;11.524;2023-12-20T06:00:39;3.38;;;1.20;;
64313;SDS011;50650;48.180;11.524;2023-12-20T06:03:06;2.45;;;0.90;;
64313;SDS011;50650;48.180;11.524;2023-12-20T06:05:33;2.03;;;1.00;;
64313;SDS011;50650;48.180;11.524;2023-12-20T06:08:00;3.30;;;1.42;;
64313;SDS011;50650;48.180;11.524;2023-12-20T06:10:28;1.33;;;1.23;;
64313;SDS011;50650;48.180;11.524;2023-12-20T06:12:54;1.42;;;1.00;;
64313;SDS011;50650;48.180;11.524;2023-12-20T06:15:21;2.20;;;1.10;;
64313;SDS011;50650;48.180;11.524;2023-12-20T06:17:48;1.73;;;1.30;;
64313;SDS011;50650;48.180;11.524;2023-12-20T06:20:14;1.83;;;1.25;;
64313;SDS011;50650;48.180;11.524;2023-12-20T06:22:42;2.17;;;1.40;;
64313;SDS011;50650;48.180;11.524;2023-12-20T06:25:09;2.33;;;1.10;;
64313;SDS011;50650;48.180;11.524;2023-12-20T06:27:35;1.42;;;0.85;;
64313;SDS011;50650;48.180;11.524;2023-12-20T06:30:01;1.52;;;0.95;;
64313;SDS011;50650;48.180;11.524;2023-12-20T06:32:28;1.75;;;1.20;;
64313;SDS011;50650;48.180;11.524;2023-12-20T06:34:55;1.75;;;1.30;;
64313;SDS011;50650;48.180;11.524;2023-12-20T06:37:21;2.92;;;1.20;;
64313;SDS011;50650;48.180;11.524;2023-12-20T06:39:49;2.58;;;1.15;;
64313;SDS011;50650;48.180;11.524;2023-12-20T06:42:15;2.35;;;1.30;;
64313;SDS011;50650;48.180;11.524;2023-12-20T06:44:42;2.08;;;1.10;;
64313;SDS011;50650;48.180;11.524;2023-12-20T06:47:08;1.58;;;1.10;;
64313;SDS011;50650;48.180;11.524;2023-12-20T06:49:34;2.20;;;0.93;;
64313;SDS011;50650;48.180;11.524;2023-12-20T06:52:01;1.63;;;1.00;;
64313;SDS011;50650;48.180;11.524;2023-12-20T06:54:28;2.25;;;1.27;;
64313;SDS011;50650;48.180;11.524;2023-12-20T06:56:56;2.90;;;1.63;;
64313;SDS011;50650;48.180;11.524;2023-12-20T06:59:22;1.58;;;1.10;;
64313;SDS011;50650;48.180;11.524;2023-12-20T07:01:48;1.65;;;0.90;;
64313;SDS011;50650;48.180;11.524;2023-12-20T07:04:15;1.15;;;0.90;;
64313;SDS011;50650;48.180;11.524;2023-12-20T07:06:42;2.05;;;1.10;;
64313;SDS011;50650;48.180;11.524;2023-12-20T07:09:08;1.98;;;1.05;;
64313;SDS011;50650;48.180;11.524;2023-12-20T07:11:35;1.40;;;1.10;;
64313;SDS011;50650;48.180;11.524;2023-12-20T07:14:05;1.30;;;0.90;;
64313;SDS011;50650;48.180;11.524;2023-12-20T07:16:32;4.50;;;1.05;;
64313;SDS011;50650;48.180;11.524;2023-12-20T07:18:58;2.65;;;0.93;;
64313;SDS011;50650;48.180;11.524;2023-12-20T07:21:25;1.15;;;0.70;;
64313;SDS011;50650;48.180;11.524;2023-12-20T07:23:51;1.13;;;0.82;;
64313;SDS011;50650;48.180;11.524;2023-12-20T07:26:21;2.75;;;1.15;;
64313;SDS011;50650;48.180;11.524;2023-12-20T07:28:51;0.90;;;0.63;;
64313;SDS011;50650;48.180;11.524;2023-12-20T07:31:19;3.88;;;0.60;;
64313;SDS011;50650;48.180;11.524;2023-12-20T07:33:45;1.27;;;0.65;;
64313;SDS011;50650;48.180;11.524;2023-12-20T07:36:12;1.30;;;0.68;;
64313;SDS011;50650;48.180;11.524;2023-12-20T07:38:40;1.40;;;0.80;;
64313;SDS011;50650;48.180;11.524;2023-12-20T07:41:08;2.25;;;0.77;;
64313;SDS011;50650;48.180;11.524;2023-12-20T07:43:35;1.40;;;0.60;;
64313;SDS011;50650;48.180;11.524;2023-12-20T07:46:04;5.72;;;1.00;;
64313;SDS011;50650;48.180;11.524;2023-12-20T07:48:35;0.52;;;0.40;;
64313;SDS011;50650;48.180;11.524;2023-12-20T07:51:02;1.08;;;0.45;;
64313;SDS011;50650;48.180;11.524;2023-12-20T07:53:28;1.15;;;0.60;;
64313;SDS011;50650;48.180;11.524;2023-12-20T07:55:55;0.88;;;0.60;;
64313;SDS011;50650;48.180;11.524;2023-12-20T07:58:21;0.63;;;0.50;;
64313;SDS011;50650;48.180;11.524;2023-12-20T08:00:48;2.40;;;0.40;;
64313;SDS011;50650;48.180;11.524;2023-12-20T08:03:14;0.95;;;0.50;;
64313;SDS011;50650;48.180;11.524;2023-12-20T08:05:42;0.95;;;0.50;;
64313;SDS011;50650;48.180;11.524;2023-12-20T08:08:08;1.50;;;0.45;;
64313;SDS011;50650;48.180;11.524;2023-12-20T08:10:35;1.42;;;0.50;;
64313;SDS011;50650;48.180;11.524;2023-12-20T08:13:01;0.88;;;0.47;;
64313;SDS011;50650;48.180;11.524;2023-12-20T08:15:27;1.38;;;0.50;;
64313;SDS011;50650;48.180;11.524;2023-12-20T08:17:54;0.45;;;0.25;;
64313;SDS011;50650;48.180;11.524;2023-12-20T08:20:20;1.02;;;0.40;;
64313;SDS011;50650;48.180;11.524;2023-12-20T08:22:48;0.55;;;0.35;;
64313;SDS011;50650;48.180;11.524;2023-12-20T08:25:14;2.95;;;0.30;;
64313;SDS011;50650;48.180;11.524;2023-12-20T08:27:42;2.40;;;0.40;;
64313;SDS011;50650;48.180;11.524;2023-12-20T08:30:09;0.55;;;0.40;;
64313;SDS011;50650;48.180;11.524;2023-12-20T08:32:36;1.10;;;0.47;;
64313;SDS011;50650;48.180;11.524;2023-12-20T08:35:03;0.80;;;0.43;;
64313;SDS011;50650;48.180;11.524;2023-12-20T08:37:29;0.45;;;0.30;;
64313;SDS011;50650;48.180;11.524;2023-12-20T08:39:58;2.25;;;0.50;;
64313;SDS011;50650;48.180;11.524;2023-12-20T08:42:25;0.55;;;0.22;;
64313;SDS011;50650;48.180;11.524;2023-12-20T08:44:56;0.88;;;0.43;;
64313;SDS011;50650;48.180;11.524;2023-12-20T08:47:22;1.35;;;0.50;;
64313;SDS011;50650;48.180;11.524;2023-12-20T08:49:49;0.50;;;0.30;;
64313;SDS011;50650;48.180;11.524;2023-12-20T08:52:18;0.40;;;0.30;;
64313;SDS011;50650;48.180;11.524;2023-12-20T08:54:44;0.85;;;0.40;;
64313;SDS011;50650;48.180;11.524;2023-12-20T08:57:12;1.25;;;0.50;;
64313;SDS011;50650;48.180;11.524;2023-12-20T08:59:38;0.60;;;0.30;;
64313;SDS011;50650;48.180;11.524;2023-12-20T09:02:05;1.30;;;0.60;;
64313;SDS011;50650;48.180;11.524;2023-12-20T09:04:31;0.73;;;0.40;;
64313;SDS011;50650;48.180;11.524;2023-12-20T09:06:59;1.48;;;0.40;;
64313;SDS011;50650;48.180;11.524;2023-12-20T09:09:26;0.60;;;0.43;;
64313;SDS011;50650;48.180;11.524;2023-12-20T09:11:55;0.60;;;0.40;;
64313;SDS011;50650;48.180;11.524;2023-12-20T09:14:25;0.63;;;0.40;;
64313;SDS011;50650;48.180;11.524;2023-12-20T09:16:52;0.90;;;0.45;;
64313;SDS011;50650;48.180;11.524;2023-12-20T09:19:20;0.95;;;0.60;;
64313;SDS011;50650;48.180;11.524;2023-12-20T09:21:47;1.13;;;0.73;;
64313;SDS011;50650;48.180;11.524;2023-12-20T09:24:13;3.03;;;0.70;;
64313;SDS011;50650;48.180;11.524;2023-12-20T09:26:40;2.88;;;0.60;;
64313;SDS011;50650;48.180;11.524;2023-12-20T09:29:07;1.15;;;0.50;;
64313;SDS011;50650;48.180;11.524;2023-12-20T09:31:39;1.00;;;0.50;;
64313;SDS011;50650;48.180;11.524;2023-12-20T09:34:06;1.15;;;0.45;;
64313;SDS011;50650;48.180;11.524;2023-12-20T09:36:32;0.70;;;0.50;;
64313;SDS011;50650;48.180;11.524;2023-12-20T09:39:01;1.58;;;0.45;;
64313;SDS011;50650;48.180;11.524;2023-12-20T09:41:27;0.85;;;0.40;;
64313;SDS011;50650;48.180;11.524;2023-12-20T09:43:54;0.73;;;0.45;;
64313;SDS011;50650;48.180;11.524;2023-12-20T09:46:22;1.67;;;0.60;;
64313;SDS011;50650;48.180;11.524;2023-12-20T09:48:52;1.02;;;0.40;;
64313;SDS011;50650;48.180;11.524;2023-12-20T09:51:18;2.22;;;0.60;;
64313;SDS011;50650;48.180;11.524;2023-12-20T09:53:48;1.80;;;0.70;;
64313;SDS011;50650;48.180;11.524;2023-12-20T09:56:14;0.75;;;0.45;;
64313;SDS011;50650;48.180;11.524;2023-12-20T09:58:41;2.15;;;0.50;;
64313;SDS011;50650;48.180;11.524;2023-12-20T10:01:07;2.20;;;0.93;;
64313;SDS011;50650;48.180;11.524;2023-12-20T10:03:34;0.90;;;0.60;;
64313;SDS011;50650;48.180;11.524;2023-12-20T10:06:01;0.60;;;0.38;;
64313;SDS011;50650;48.180;11.524;2023-12-20T10:08:27;1.00;;;0.40;;
64313;SDS011;50650;48.180;11.524;2023-12-20T10:10:55;0.85;;;0.50;;
64313;SDS011;50650;48.180;11.524;2023-12-20T10:13:22;0.95;;;0.57;;
64313;SDS011;50650;48.180;11.524;2023-12-20T10:15:49;0.80;;;0.50;;
64313;SDS011;50650;48.180;11.524;2023-12-20T10:18:15;0.90;;;0.43;;
64313;SDS011;50650;48.180;11.524;2023-12-20T10:20:42;1.20;;;0.80;;
64313;SDS011;50650;48.180;11.524;2023-12-20T10:23:10;1.27;;;0.57;;
64313;SDS011;50650;48.180;11.524;2023-12-20T10:25:37;1.05;;;0.63;;
64313;SDS011;50650;48.180;11.524;2023-12-20T10:28:10;1.20;;;0.57;;
64313;SDS011;50650;48.180;11.524;2023-12-20T10:30:37;1.42;;;0.70;;
64313;SDS011;50650;48.180;11.524;2023-12-20T10:33:05;1.15;;;0.40;;
64313;SDS011;50650;48.180;11.524;2023-12-20T10:35:32;0.80;;;0.55;;
64313;SDS011;50650;48.180;11.524;2023-12-20T10:37:59;0.93;;;0.50;;
64313;SDS011;50650;48.180;11.524;2023-12-20T10:40:30;0.85;;;0.47;;
64313;SDS011;50650;48.180;11.524;2023-12-20T10:42:58;1.60;;;0.98;;
64313;SDS011;50650;48.180;11.524;2023-12-20T10:45:26;1.58;;;0.80;;
64313;SDS011;50650;48.180;11.524;2023-12-20T10:47:52;2.40;;;0.50;;
64313;SDS011;50650;48.180;11.524;2023-12-20T10:50:19;2.25;;;0.60;;
64313;SDS011;50650;48.180;11.524;2023-12-20T10:52:46;1.33;;;0.63;;
64313;SDS011;50650;48.180;11.524;2023-12-20T10:55:13;0.93;;;0.65;;
64313;SDS011;50650;48.180;11.524;2023-12-20T10:57:40;0.52;;;0.38;;
64313;SDS011;50650;48.180;11.524;2023-12-20T11:00:08;3.53;;;0.60;;
64313;SDS011;50650;48.180;11.524;2023-12-20T11:02:37;1.10;;;0.60;;
64313;SDS011;50650;48.180;11.524;2023-12-20T11:05:06;2.00;;;0.47;;
64313;SDS011;50650;48.180;11.524;2023-12-20T11:07:37;1.00;;;0.45;;
64313;SDS011;50650;48.180;11.524;2023-12-20T11:10:09;0.70;;;0.55;;
64313;SDS011;50650;48.180;11.524;2023-12-20T11:12:46;1.63;;;0.60;;
64313;SDS011;50650;48.180;11.524;2023-12-20T11:15:15;0.98;;;0.60;;
64313;SDS011;50650;48.180;11.524;2023-12-20T11:17:44;1.83;;;0.60;;
64313;SDS011;50650;48.180;11.524;2023-12-20T11:20:11;1.30;;;0.70;;
64313;SDS011;50650;48.180;11.524;2023-12-20T11:22:39;1.52;;;0.50;;
64313;SDS011;50650;48.180;11.524;2023-12-20T11:25:07;1.08;;;0.65;;
64313;SDS011;50650;48.180;11.524;2023-12-20T11:27:35;1.20;;;0.68;;
64313;SDS011;50650;48.180;11.524;2023-12-20T11:30:04;2.42;;;0.60;;
64313;SDS011;50650;48.180;11.524;2023-12-20T11:32:33;1.15;;;0.75;;
64313;SDS011;50650;48.180;11.524;2023-12-20T11:35:00;1.00;;;0.65;;
64313;SDS011;50650;48.180;11.524;2023-12-20T11:37:28;1.05;;;0.63;;
64313;SDS011;50650;48.180;11.524;2023-12-20T11:39:55;1.52;;;0.80;;
64313;SDS011;50650;48.180;11.524;2023-12-20T11:42:22;2.17;;;1.00;;
64313;SDS011;50650;48.180;11.524;2023-12-20T11:44:49;4.80;;;0.88;;
64313;SDS011;50650;48.180;11.524;2023-12-20T11:47:17;1.25;;;0.63;;
64313;SDS011;50650;48.180;11.524;2023-12-20T11:49:46;2.22;;;0.75;;
64313;SDS011;50650;48.180;11.524;2023-12-20T11:52:13;2.08;;;0.95;;
64313;SDS011;50650;48.180;11.524;2023-12-20T11:54:39;0.85;;;0.60;;
64313;SDS011;50650;48.180;11.524;2023-12-20T11:57:06;2.13;;;0.82;;
64313;SDS011;50650;48.180;11.524;2023-12-20T11:59:32;1.70;;;1.00;;
64313;SDS011;50650;48.180;11.524;2023-12-20T12:01:59;1.77;;;1.10;;
64313;SDS011;50650;48.180;11.524;2023-12-20T12:04:27;1.00;;;0.82;;
64313;SDS011;50650;48.180;11.524;2023-12-20T12:06:54;1.10;;;0.70;;
64313;SDS011;50650;48.180;11.524;2023-12-20T12:09:20;1.35;;;0.70;;
64313;SDS011;50650;48.180;11.524;2023-12-20T12:11:46;0.80;;;0.50;;
64313;SDS011;50650;48.180;11.524;2023-12-20T12:14:13;1.30;;;0.50;;
64313;SDS011;50650;48.180;11.524;2023-12-20T12:16:41;1.42;;;0.70;;
64313;SDS011;50650;48.180;11.524;2023-12-20T12:19:07;1.20;;;0.52;;
64313;SDS011;50650;48.180;11.524;2023-12-20T12:21:35;1.67;;;0.75;;
64313;SDS011;50650;48.180;11.524;2023-12-20T12:24:06;1.80;;;0.90;;
64313;SDS011;50650;48.180;11.524;2023-12-20T12:26:33;1.13;;;0.70;;
64313;SDS011;50650;48.180;11.524;2023-12-20T12:28:59;1.15;;;0.68;;
64313;SDS011;50650;48.180;11.524;2023-12-20T12:31:26;1.10;;;0.70;;
64313;SDS011;50650;48.180;11.524;2023-12-20T12:33:52;0.95;;;0.70;;
64313;SDS011;50650;48.180;11.524;2023-12-20T12:36:18;1.80;;;0.98;;
64313;SDS011;50650;48.180;11.524;2023-12-20T12:38:48;1.27;;;0.70;;
64313;SDS011;50650;48.180;11.524;2023-12-20T12:41:15;1.90;;;0.80;;
64313;SDS011;50650;48.180;11.524;2023-12-20T12:43:41;2.35;;;0.93;;
64313;SDS011;50650;48.180;11.524;2023-12-20T12:46:08;1.10;;;0.90;;
64313;SDS011;50650;48.180;11.524;2023-12-20T12:48:34;1.58;;;0.88;;
64313;SDS011;50650;48.180;11.524;2023-12-20T12:51:01;1.30;;;0.90;;
64313;SDS011;50650;48.180;11.524;2023-12-20T12:53:27;1.40;;;1.00;;
64313;SDS011;50650;48.180;11.524;2023-12-20T12:55:55;1.35;;;0.90;;
64313;SDS011;50650;48.180;11.524;2023-12-20T12:58:21;3.65;;;1.00;;
64313;SDS011;50650;48.180;11.524;2023-12-20T13:00:50;1.85;;;1.10;;
64313;SDS011;50650;48.180;11.524;2023-12-20T13:03:16;1.88;;;1.10;;
64313;SDS011;50650;48.180;11.524;2023-12-20T13:05:43;1.92;;;1.00;;
64313;SDS011;50650;48.180;11.524;2023-12-20T13:08:09;1.17;;;0.85;;
64313;SDS011;50650;48.180;11.524;2023-12-20T13:10:37;1.45;;;0.80;;
64313;SDS011;50650;48.180;11.524;2023-12-20T13:13:05;1.30;;;0.60;;
64313;SDS011;50650;48.180;11.524;2023-12-20T13:15:31;2.25;;;0.80;;
64313;SDS011;50650;48.180;11.524;2023-12-20T13:17:57;2.60;;;1.00;;
64313;SDS011;50650;48.180;11.524;2023-12-20T13:20:25;1.40;;;0.85;;
64313;SDS011;50650;48.180;11.524;2023-12-20T13:22:51;2.38;;;0.82;;
64313;SDS011;50650;48.180;11.524;2023-12-20T13:25:17;1.67;;;0.73;;
64313;SDS011;50650;48.180;11.524;2023-12-20T13:27:44;1.67;;;0.90;;
64313;SDS011;50650;48.180;11.524;2023-12-20T13:30:12;2.30;;;0.60;;
64313;SDS011;50650;48.180;11.524;2023-12-20T13:32:42;1.15;;;0.65;;
64313;SDS011;50650;48.180;11.524;2023-12-20T13:35:09;1.17;;;0.75;;
64313;SDS011;50650;48.180;11.524;2023-12-20T13:37:35;2.80;;;0.90;;
64313;SDS011;50650;48.180;11.524;2023-12-20T13:40:02;2.45;;;0.95;;
64313;SDS011;50650;48.180;11.524;2023-12-20T13:42:29;1.35;;;0.75;;
64313;SDS011;50650;48.180;11.524;2023-12-20T13:44:55;2.53;;;0.98;;
64313;SDS011;50650;48.180;11.524;2023-12-20T13:47:23;4.47;;;0.98;;
64313;SDS011;50650;48.180;11.524;2023-12-20T13:49:50;6.13;;;1.30;;
64313;SDS011;50650;48.180;11.524;2023-12-20T13:52:19;2.17;;;0.85;;
64313;SDS011;50650;48.180;11.524;2023-12-20T13:54:45;2.15;;;1.02;;
64313;SDS011;50650;48.180;11.524;2023-12-20T13:57:12;1.58;;;1.13;;
64313;SDS011;50650;48.180;11.524;2023-12-20T13:59:39;3.10;;;1.00;;
64313;SDS011;50650;48.180;11.524;2023-12-20T14:02:05;1.20;;;0.90;;
64313;SDS011;50650;48.180;11.524;2023-12-20T14:04:33;2.78;;;1.15;;
64313;SDS011;50650;48.180;11.524;2023-12-20T14:06:59;2.70;;;1.10;;
64313;SDS011;50650;48.180;11.524;2023-12-20T14:09:28;5.22;;;0.95;;
64313;SDS011;50650;48.180;11.524;2023-12-20T14:11:54;3.08;;;0.75;;
64313;SDS011;50650;48.180;11.524;2023-12-20T14:14:20;4.90;;;1.10;;
64313;SDS011;50650;48.180;11.524;2023-12-20T14:16:47;3.30;;;1.00;;
64313;SDS011;50650;48.180;11.524;2023-12-20T14:19:13;2.63;;;1.10;;
64313;SDS011;50650;48.180;11.524;2023-12-20T14:21:41;3.65;;;1.15;;
64313;SDS011;50650;48.180;11.524;2023-12-20T14:24:10;3.20;;;1.10;;
64313;SDS011;50650;48.180;11.524;2023-12-20T14:26:38;3.72;;;1.30;;
64313;SDS011;50650;48.180;11.524;2023-12-20T14:29:04;2.70;;;0.93;;
64313;SDS011;50650;48.180;11.524;2023-12-20T14:31:32;2.75;;;1.10;;